sensor_id;sensor_type;location;lat;lon;timestamp;P1;durP1;ratioP1;P2;durP2;ratioP2
50231;SDS011;36118;56.468;84.952;2022-11-12T00:00:07;9.38;;;7.00;;
50231;SDS011;36118;56.468;84.952;2022-11-12T00:05:29;11.18;;;8.20;;
50231;SDS011;36118;56.468;84.952;2022-11-12T00:10:51;10.27;;;7.82;;
50231;SDS011;36118;56.468;84.952;2022-11-12T00:16:12;11.45;;;7.35;;
50231;SDS011;36118;56.468;84.952;2022-11-12T00:21:33;12.88;;;8.02;;
50231;SDS011;36118;56.468;84.952;2022-11-12T00:26:54;12.10;;;8.05;;
50231;SDS011;36118;56.468;84.952;2022-11-12T00:32:16;10.35;;;8.23;;
50231;SDS011;36118;56.468;84.952;2022-11-12T00:37:37;11.05;;;7.47;;
50231;SDS011;36118;56.468;84.952;2022-11-12T00:42:58;13.70;;;9.77;;
50231;SDS011;36118;56.468;84.952;2022-11-12T00:48:19;12.25;;;8.75;;
50231;SDS011;36118;56.468;84.952;2022-11-12T00:53:40;12.98;;;8.75;;
50231;SDS011;36118;56.468;84.952;2022-11-12T00:59:02;13.57;;;8.93;;
50231;SDS011;36118;56.468;84.952;2022-11-12T01:04:23;13.48;;;8.95;;
50231;SDS011;36118;56.468;84.952;2022-11-12T01:09:44;14.60;;;9.18;;
50231;SDS011;36118;56.468;84.952;2022-11-12T01:15:06;74.50;;;12.30;;
50231;SDS011;36118;56.468;84.952;2022-11-12T01:20:27;36.08;;;9.05;;
50231;SDS011;36118;56.468;84.952;2022-11-12T01:25:49;43.42;;;12.85;;
50231;SDS011;36118;56.468;84.952;2022-11-12T01:31:18;66.28;;;10.75;;
50231;SDS011;36118;56.468;84.952;2022-11-12T01:36:40;31.27;;;10.88;;
50231;SDS011;36118;56.468;84.952;2022-11-12T01:42:02;17.20;;;10.73;;
50231;SDS011;36118;56.468;84.952;2022-11-12T01:47:28;18.08;;;11.10;;
50231;SDS011;36118;56.468;84.952;2022-11-12T01:52:53;16.42;;;11.02;;
50231;SDS011;36118;56.468;84.952;2022-11-12T01:58:23;24.83;;;11.63;;
50231;SDS011;36118;56.468;84.952;2022-11-12T02:03:48;16.65;;;10.35;;
50231;SDS011;36118;56.468;84.952;2022-11-12T02:09:09;30.48;;;11.15;;
50231;SDS011;36118;56.468;84.952;2022-11-12T02:14:30;28.90;;;11.63;;
50231;SDS011;36118;56.468;84.952;2022-11-12T02:19:52;24.92;;;10.82;;
50231;SDS011;36118;56.468;84.952;2022-11-12T02:25:15;22.13;;;10.95;;
50231;SDS011;36118;56.468;84.952;2022-11-12T02:30:39;14.93;;;9.80;;
50231;SDS011;36118;56.468;84.952;2022-11-12T02:36:05;61.85;;;10.73;;
50231;SDS011;36118;56.468;84.952;2022-11-12T02:41:26;13.15;;;9.20;;
50231;SDS011;36118;56.468;84.952;2022-11-12T02:46:47;16.77;;;9.40;;
50231;SDS011;36118;56.468;84.952;2022-11-12T02:52:09;14.15;;;9.90;;
50231;SDS011;36118;56.468;84.952;2022-11-12T02:57:31;14.32;;;9.23;;
50231;SDS011;36118;56.468;84.952;2022-11-12T03:02:52;14.88;;;10.18;;
50231;SDS011;36118;56.468;84.952;2022-11-12T03:08:19;30.75;;;9.07;;
50231;SDS011;36118;56.468;84.952;2022-11-12T03:13:40;12.80;;;9.05;;
50231;SDS011;36118;56.468;84.952;2022-11-12T03:19:02;12.90;;;10.13;;
50231;SDS011;36118;56.468;84.952;2022-11-12T03:24:23;10.65;;;8.73;;
50231;SDS011;36118;56.468;84.952;2022-11-12T03:29:44;18.23;;;8.57;;
50231;SDS011;36118;56.468;84.952;2022-11-12T03:35:06;12.65;;;10.13;;
50231;SDS011;36118;56.468;84.952;2022-11-12T03:40:27;41.38;;;10.43;;
50231;SDS011;36118;56.468;84.952;2022-11-12T03:45:49;21.45;;;10.60;;
50231;SDS011;36118;56.468;84.952;2022-11-12T03:51:11;35.67;;;11.52;;
50231;SDS011;36118;56.468;84.952;2022-11-12T03:56:35;17.67;;;9.82;;
50231;SDS011;36118;56.468;84.952;2022-11-12T04:01:56;14.57;;;10.07;;
50231;SDS011;36118;56.468;84.952;2022-11-12T04:07:17;14.23;;;9.05;;
50231;SDS011;36118;56.468;84.952;2022-11-12T04:12:57;11.52;;;7.72;;
50231;SDS011;36118;56.468;84.952;2022-11-12T04:18:37;12.75;;;7.93;;
50231;SDS011;36118;56.468;84.952;2022-11-12T04:30:10;15.27;;;7.13;;
50231;SDS011;36118;56.468;84.952;2022-11-12T04:35:38;23.85;;;8.60;;
50231;SDS011;36118;56.468;84.952;2022-11-12T04:40:59;167.88;;;13.40;;
50231;SDS011;36118;56.468;84.952;2022-11-12T04:46:39;11.75;;;7.72;;
50231;SDS011;36118;56.468;84.952;2022-11-12T04:52:00;23.45;;;7.53;;
50231;SDS011;36118;56.468;84.952;2022-11-12T04:57:27;14.32;;;6.50;;
50231;SDS011;36118;56.468;84.952;2022-11-12T05:02:49;9.40;;;7.00;;
50231;SDS011;36118;56.468;84.952;2022-11-12T05:08:10;9.73;;;6.35;;
50231;SDS011;36118;56.468;84.952;2022-11-12T05:13:31;8.82;;;6.32;;
50231;SDS011;36118;56.468;84.952;2022-11-12T05:18:52;9.57;;;5.88;;
50231;SDS011;36118;56.468;84.952;2022-11-12T05:24:14;9.15;;;6.32;;
50231;SDS011;36118;56.468;84.952;2022-11-12T05:29:55;8.82;;;6.53;;
50231;SDS011;36118;56.468;84.952;2022-11-12T05:35:16;7.70;;;6.00;;
50231;SDS011;36118;56.468;84.952;2022-11-12T05:40:38;8.82;;;6.47;;
50231;SDS011;36118;56.468;84.952;2022-11-12T05:46:04;8.93;;;6.22;;
50231;SDS011;36118;56.468;84.952;2022-11-12T05:51:25;10.88;;;6.95;;
50231;SDS011;36118;56.468;84.952;2022-11-12T05:56:46;12.00;;;6.32;;
50231;SDS011;36118;56.468;84.952;2022-11-12T06:02:07;8.60;;;5.63;;
50231;SDS011;36118;56.468;84.952;2022-11-12T06:07:29;9.75;;;6.22;;
50231;SDS011;36118;56.468;84.952;2022-11-12T06:12:50;7.63;;;5.82;;
50231;SDS011;36118;56.468;84.952;2022-11-12T06:18:11;6.25;;;5.07;;
50231;SDS011;36118;56.468;84.952;2022-11-12T06:23:32;7.10;;;5.28;;
50231;SDS011;36118;56.468;84.952;2022-11-12T06:28:53;7.13;;;5.18;;
50231;SDS011;36118;56.468;84.952;2022-11-12T06:34:15;9.70;;;6.00;;
50231;SDS011;36118;56.468;84.952;2022-11-12T06:39:36;7.88;;;5.68;;
50231;SDS011;36118;56.468;84.952;2022-11-12T06:44:57;8.13;;;6.15;;
50231;SDS011;36118;56.468;84.952;2022-11-12T06:50:18;13.13;;;7.13;;
50231;SDS011;36118;56.468;84.952;2022-11-12T06:55:39;11.73;;;6.50;;
50231;SDS011;36118;56.468;84.952;2022-11-12T07:01:05;8.40;;;6.00;;
50231;SDS011;36118;56.468;84.952;2022-11-12T07:06:44;9.65;;;6.38;;
50231;SDS011;36118;56.468;84.952;2022-11-12T07:12:05;8.38;;;6.10;;
50231;SDS011;36118;56.468;84.952;2022-11-12T07:17:27;8.95;;;6.25;;
50231;SDS011;36118;56.468;84.952;2022-11-12T07:22:48;9.35;;;6.40;;
50231;SDS011;36118;56.468;84.952;2022-11-12T07:28:10;8.23;;;5.78;;
50231;SDS011;36118;56.468;84.952;2022-11-12T07:33:31;9.93;;;6.57;;
50231;SDS011;36118;56.468;84.952;2022-11-12T07:38:53;9.65;;;6.03;;
50231;SDS011;36118;56.468;84.952;2022-11-12T07:44:14;10.48;;;6.35;;
50231;SDS011;36118;56.468;84.952;2022-11-12T07:49:35;11.40;;;5.90;;
50231;SDS011;36118;56.468;84.952;2022-11-12T07:54:57;7.95;;;5.88;;
50231;SDS011;36118;56.468;84.952;2022-11-12T08:00:18;8.70;;;6.40;;
50231;SDS011;36118;56.468;84.952;2022-11-12T08:05:40;8.50;;;6.32;;
50231;SDS011;36118;56.468;84.952;2022-11-12T08:11:01;8.35;;;5.95;;
50231;SDS011;36118;56.468;84.952;2022-11-12T08:16:22;8.15;;;5.13;;
50231;SDS011;36118;56.468;84.952;2022-11-12T08:21:43;8.30;;;5.60;;
50231;SDS011;36118;56.468;84.952;2022-11-12T08:27:04;8.20;;;5.65;;
50231;SDS011;36118;56.468;84.952;2022-11-12T08:32:25;8.57;;;5.75;;
50231;SDS011;36118;56.468;84.952;2022-11-12T08:37:46;29.85;;;6.47;;
50231;SDS011;36118;56.468;84.952;2022-11-12T08:43:08;16.55;;;7.25;;
50231;SDS011;36118;56.468;84.952;2022-11-12T08:48:30;16.50;;;5.22;;
50231;SDS011;36118;56.468;84.952;2022-11-12T08:53:52;9.50;;;6.15;;
50231;SDS011;36118;56.468;84.952;2022-11-12T08:59:13;7.80;;;5.20;;
50231;SDS011;36118;56.468;84.952;2022-11-12T09:04:35;18.75;;;5.38;;
50231;SDS011;36118;56.468;84.952;2022-11-12T09:09:57;7.70;;;4.80;;
50231;SDS011;36118;56.468;84.952;2022-11-12T09:15:21;10.45;;;5.25;;
50231;SDS011;36118;56.468;84.952;2022-11-12T09:21:00;9.75;;;5.45;;
50231;SDS011;36118;56.468;84.952;2022-11-12T09:26:25;10.77;;;6.30;;
50231;SDS011;36118;56.468;84.952;2022-11-12T09:31:47;8.38;;;5.43;;
50231;SDS011;36118;56.468;84.952;2022-11-12T09:37:08;8.70;;;5.95;;
50231;SDS011;36118;56.468;84.952;2022-11-12T09:42:29;7.93;;;5.72;;
50231;SDS011;36118;56.468;84.952;2022-11-12T09:47:52;10.70;;;5.07;;
50231;SDS011;36118;56.468;84.952;2022-11-12T09:53:17;8.73;;;5.32;;
50231;SDS011;36118;56.468;84.952;2022-11-12T09:58:46;11.50;;;7.05;;
50231;SDS011;36118;56.468;84.952;2022-11-12T10:10:23;10.30;;;6.00;;
50231;SDS011;36118;56.468;84.952;2022-11-12T10:16:05;9.52;;;6.25;;
50231;SDS011;36118;56.468;84.952;2022-11-12T10:22:00;8.45;;;4.78;;
50231;SDS011;36118;56.468;84.952;2022-11-12T10:27:47;6.88;;;4.70;;
50231;SDS011;36118;56.468;84.952;2022-11-12T10:33:10;10.15;;;6.03;;
50231;SDS011;36118;56.468;84.952;2022-11-12T10:38:33;8.73;;;5.93;;
50231;SDS011;36118;56.468;84.952;2022-11-12T10:43:58;8.02;;;5.45;;
50231;SDS011;36118;56.468;84.952;2022-11-12T10:49:22;7.15;;;4.63;;
50231;SDS011;36118;56.468;84.952;2022-11-12T10:54:44;9.32;;;4.30;;
50231;SDS011;36118;56.468;84.952;2022-11-12T11:05:47;10.77;;;4.82;;
50231;SDS011;36118;56.468;84.952;2022-11-12T11:11:18;9.25;;;4.97;;
50231;SDS011;36118;56.468;84.952;2022-11-12T11:16:50;8.77;;;4.40;;
50231;SDS011;36118;56.468;84.952;2022-11-12T11:22:19;9.82;;;5.07;;
50231;SDS011;36118;56.468;84.952;2022-11-12T11:33:31;7.57;;;5.18;;
50231;SDS011;36118;56.468;84.952;2022-11-12T11:39:03;9.48;;;5.05;;
50231;SDS011;36118;56.468;84.952;2022-11-12T11:44:37;9.10;;;5.15;;
50231;SDS011;36118;56.468;84.952;2022-11-12T11:50:26;7.90;;;4.53;;
50231;SDS011;36118;56.468;84.952;2022-11-12T12:01:29;9.65;;;5.72;;
50231;SDS011;36118;56.468;84.952;2022-11-12T12:07:06;7.82;;;5.20;;
50231;SDS011;36118;56.468;84.952;2022-11-12T12:18:16;7.28;;;4.90;;
50231;SDS011;36118;56.468;84.952;2022-11-12T12:24:04;6.85;;;4.88;;
50231;SDS011;36118;56.468;84.952;2022-11-12T12:29:38;6.53;;;4.07;;
50231;SDS011;36118;56.468;84.952;2022-11-12T12:40:43;6.50;;;4.25;;
50231;SDS011;36118;56.468;84.952;2022-11-12T12:46:22;7.05;;;3.78;;
50231;SDS011;36118;56.468;84.952;2022-11-12T12:51:45;7.25;;;4.68;;
50231;SDS011;36118;56.468;84.952;2022-11-12T12:57:31;7.07;;;4.18;;
50231;SDS011;36118;56.468;84.952;2022-11-12T13:02:58;6.60;;;4.30;;
50231;SDS011;36118;56.468;84.952;2022-11-12T13:08:22;7.13;;;4.40;;
50231;SDS011;36118;56.468;84.952;2022-11-12T13:13:45;7.85;;;4.93;;
50231;SDS011;36118;56.468;84.952;2022-11-12T13:19:06;7.15;;;4.90;;
50231;SDS011;36118;56.468;84.952;2022-11-12T13:35:47;10.00;;;6.22;;
50231;SDS011;36118;56.468;84.952;2022-11-12T13:41:15;7.70;;;5.30;;
50231;SDS011;36118;56.468;84.952;2022-11-12T13:46:39;8.90;;;5.32;;
50231;SDS011;36118;56.468;84.952;2022-11-12T13:52:00;6.93;;;4.57;;
50231;SDS011;36118;56.468;84.952;2022-11-12T14:02:57;8.13;;;4.68;;
50231;SDS011;36118;56.468;84.952;2022-11-12T14:19:47;8.88;;;5.28;;
50231;SDS011;36118;56.468;84.952;2022-11-12T14:25:18;7.20;;;5.50;;
50231;SDS011;36118;56.468;84.952;2022-11-12T14:30:44;7.65;;;5.05;;
50231;SDS011;36118;56.468;84.952;2022-11-12T14:36:09;8.43;;;5.13;;
50231;SDS011;36118;56.468;84.952;2022-11-12T14:41:33;7.78;;;4.75;;
50231;SDS011;36118;56.468;84.952;2022-11-12T14:46:57;7.57;;;4.93;;
50231;SDS011;36118;56.468;84.952;2022-11-12T14:57:49;9.45;;;5.53;;
50231;SDS011;36118;56.468;84.952;2022-11-12T15:03:13;9.68;;;5.82;;
50231;SDS011;36118;56.468;84.952;2022-11-12T15:08:37;8.13;;;5.45;;
50231;SDS011;36118;56.468;84.952;2022-11-12T15:14:00;8.95;;;4.97;;
50231;SDS011;36118;56.468;84.952;2022-11-12T15:19:24;10.87;;;6.50;;
50231;SDS011;36118;56.468;84.952;2022-11-12T15:24:46;10.85;;;6.82;;
50231;SDS011;36118;56.468;84.952;2022-11-12T15:30:22;10.00;;;5.95;;
50231;SDS011;36118;56.468;84.952;2022-11-12T15:35:54;7.82;;;5.72;;
50231;SDS011;36118;56.468;84.952;2022-11-12T15:41:26;8.52;;;5.35;;
50231;SDS011;36118;56.468;84.952;2022-11-12T15:46:50;8.23;;;5.20;;
50231;SDS011;36118;56.468;84.952;2022-11-12T15:52:12;8.73;;;5.28;;
50231;SDS011;36118;56.468;84.952;2022-11-12T15:57:37;7.13;;;5.00;;
50231;SDS011;36118;56.468;84.952;2022-11-12T16:03:14;7.15;;;4.82;;
50231;SDS011;36118;56.468;84.952;2022-11-12T16:08:36;7.78;;;4.93;;
50231;SDS011;36118;56.468;84.952;2022-11-12T16:13:57;8.85;;;5.68;;
50231;SDS011;36118;56.468;84.952;2022-11-12T16:19:19;7.15;;;4.60;;
50231;SDS011;36118;56.468;84.952;2022-11-12T16:24:41;8.35;;;5.60;;
50231;SDS011;36118;56.468;84.952;2022-11-12T16:30:04;8.00;;;4.70;;
50231;SDS011;36118;56.468;84.952;2022-11-12T16:35:27;7.05;;;5.07;;
50231;SDS011;36118;56.468;84.952;2022-11-12T16:40:49;7.03;;;4.57;;
50231;SDS011;36118;56.468;84.952;2022-11-12T16:46:17;7.70;;;4.50;;
50231;SDS011;36118;56.468;84.952;2022-11-12T16:51:44;5.63;;;4.28;;
50231;SDS011;36118;56.468;84.952;2022-11-12T16:57:05;9.45;;;5.00;;
50231;SDS011;36118;56.468;84.952;2022-11-12T17:02:28;6.68;;;4.57;;
50231;SDS011;36118;56.468;84.952;2022-11-12T17:07:54;7.97;;;4.72;;
50231;SDS011;36118;56.468;84.952;2022-11-12T17:13:17;8.73;;;5.00;;
50231;SDS011;36118;56.468;84.952;2022-11-12T17:18:38;6.07;;;4.28;;
50231;SDS011;36118;56.468;84.952;2022-11-12T17:23:59;7.30;;;4.68;;
50231;SDS011;36118;56.468;84.952;2022-11-12T17:29:20;10.27;;;4.90;;
50231;SDS011;36118;56.468;84.952;2022-11-12T17:34:41;6.90;;;4.47;;
50231;SDS011;36118;56.468;84.952;2022-11-12T17:40:03;7.93;;;4.97;;
50231;SDS011;36118;56.468;84.952;2022-11-12T17:45:25;8.18;;;5.60;;
50231;SDS011;36118;56.468;84.952;2022-11-12T17:50:47;7.50;;;4.10;;
50231;SDS011;36118;56.468;84.952;2022-11-12T17:56:09;6.22;;;4.18;;
50231;SDS011;36118;56.468;84.952;2022-11-12T18:01:32;7.22;;;4.50;;
50231;SDS011;36118;56.468;84.952;2022-11-12T18:06:54;6.30;;;4.38;;
50231;SDS011;36118;56.468;84.952;2022-11-12T18:12:15;7.15;;;4.25;;
50231;SDS011;36118;56.468;84.952;2022-11-12T18:17:36;7.75;;;4.65;;
50231;SDS011;36118;56.468;84.952;2022-11-12T18:22:57;7.18;;;4.93;;
50231;SDS011;36118;56.468;84.952;2022-11-12T18:28:19;6.57;;;4.75;;
50231;SDS011;36118;56.468;84.952;2022-11-12T18:33:40;7.65;;;4.82;;
50231;SDS011;36118;56.468;84.952;2022-11-12T18:39:02;7.38;;;4.80;;
50231;SDS011;36118;56.468;84.952;2022-11-12T18:44:24;7.30;;;4.82;;
50231;SDS011;36118;56.468;84.952;2022-11-12T18:49:45;7.43;;;5.32;;
50231;SDS011;36118;56.468;84.952;2022-11-12T18:55:07;10.05;;;5.10;;
50231;SDS011;36118;56.468;84.952;2022-11-12T19:00:28;7.53;;;4.75;;
50231;SDS011;36118;56.468;84.952;2022-11-12T19:05:55;8.18;;;5.35;;
50231;SDS011;36118;56.468;84.952;2022-11-12T19:11:18;7.38;;;5.07;;
50231;SDS011;36118;56.468;84.952;2022-11-12T19:16:41;6.45;;;4.63;;
50231;SDS011;36118;56.468;84.952;2022-11-12T19:22:04;7.43;;;4.68;;
50231;SDS011;36118;56.468;84.952;2022-11-12T19:27:25;8.15;;;4.95;;
50231;SDS011;36118;56.468;84.952;2022-11-12T19:32:46;6.80;;;4.60;;
50231;SDS011;36118;56.468;84.952;2022-11-12T19:38:08;6.85;;;4.38;;
50231;SDS011;36118;56.468;84.952;2022-11-12T19:43:29;7.65;;;4.93;;
50231;SDS011;36118;56.468;84.952;2022-11-12T19:48:50;8.50;;;4.93;;
50231;SDS011;36118;56.468;84.952;2022-11-12T19:54:11;7.25;;;5.60;;
50231;SDS011;36118;56.468;84.952;2022-11-12T19:59:32;8.50;;;5.25;;
50231;SDS011;36118;56.468;84.952;2022-11-12T20:04:53;7.65;;;5.43;;
50231;SDS011;36118;56.468;84.952;2022-11-12T20:10:15;7.78;;;5.47;;
50231;SDS011;36118;56.468;84.952;2022-11-12T20:15:37;8.50;;;5.70;;
50231;SDS011;36118;56.468;84.952;2022-11-12T20:20:58;8.88;;;5.50;;
50231;SDS011;36118;56.468;84.952;2022-11-12T20:26:19;9.70;;;5.68;;
50231;SDS011;36118;56.468;84.952;2022-11-12T20:31:40;9.18;;;5.80;;
50231;SDS011;36118;56.468;84.952;2022-11-12T20:37:01;8.13;;;5.40;;
50231;SDS011;36118;56.468;84.952;2022-11-12T20:42:22;7.95;;;5.00;;
50231;SDS011;36118;56.468;84.952;2022-11-12T20:47:44;9.45;;;5.43;;
50231;SDS011;36118;56.468;84.952;2022-11-12T20:53:05;9.65;;;5.47;;
50231;SDS011;36118;56.468;84.952;2022-11-12T20:58:27;8.90;;;5.15;;
50231;SDS011;36118;56.468;84.952;2022-11-12T21:03:49;8.45;;;5.35;;
50231;SDS011;36118;56.468;84.952;2022-11-12T21:09:11;8.80;;;5.90;;
50231;SDS011;36118;56.468;84.952;2022-11-12T21:14:32;7.25;;;4.93;;
50231;SDS011;36118;56.468;84.952;2022-11-12T21:19:53;7.70;;;5.10;;
50231;SDS011;36118;56.468;84.952;2022-11-12T21:25:14;10.07;;;6.30;;
50231;SDS011;36118;56.468;84.952;2022-11-12T21:30:36;9.68;;;6.22;;
50231;SDS011;36118;56.468;84.952;2022-11-12T21:35:57;9.35;;;5.90;;
50231;SDS011;36118;56.468;84.952;2022-11-12T21:41:19;9.32;;;6.03;;
50231;SDS011;36118;56.468;84.952;2022-11-12T21:46:42;9.43;;;5.88;;
50231;SDS011;36118;56.468;84.952;2022-11-12T21:52:03;8.45;;;6.57;;
50231;SDS011;36118;56.468;84.952;2022-11-12T21:57:24;11.27;;;5.75;;
50231;SDS011;36118;56.468;84.952;2022-11-12T22:02:45;8.98;;;6.60;;
50231;SDS011;36118;56.468;84.952;2022-11-12T22:08:07;9.25;;;6.82;;
50231;SDS011;36118;56.468;84.952;2022-11-12T22:13:28;8.85;;;6.68;;
50231;SDS011;36118;56.468;84.952;2022-11-12T22:18:50;9.90;;;6.45;;
50231;SDS011;36118;56.468;84.952;2022-11-12T22:24:12;8.30;;;5.75;;
50231;SDS011;36118;56.468;84.952;2022-11-12T22:29:34;10.15;;;6.38;;
50231;SDS011;36118;56.468;84.952;2022-11-12T22:34:55;9.60;;;6.65;;
50231;SDS011;36118;56.468;84.952;2022-11-12T22:40:16;10.70;;;6.22;;
50231;SDS011;36118;56.468;84.952;2022-11-12T22:45:38;8.93;;;6.88;;
50231;SDS011;36118;56.468;84.952;2022-11-12T22:51:03;11.32;;;7.18;;
50231;SDS011;36118;56.468;84.952;2022-11-12T22:56:29;10.98;;;7.47;;
50231;SDS011;36118;56.468;84.952;2022-11-12T23:01:53;9.98;;;7.20;;
50231;SDS011;36118;56.468;84.952;2022-11-12T23:07:14;10.27;;;6.60;;
50231;SDS011;36118;56.468;84.952;2022-11-12T23:12:36;12.05;;;8.00;;
50231;SDS011;36118;56.468;84.952;2022-11-12T23:17:57;11.80;;;7.90;;
50231;SDS011;36118;56.468;84.952;2022-11-12T23:23:18;13.40;;;7.57;;
50231;SDS011;36118;56.468;84.952;2022-11-12T23:28:39;12.40;;;8.55;;
50231;SDS011;36118;56.468;84.952;2022-11-12T23:34:00;10.85;;;6.70;;
50231;SDS011;36118;56.468;84.952;2022-11-12T23:39:22;12.10;;;7.95;;
50231;SDS011;36118;56.468;84.952;2022-11-12T23:44:43;11.27;;;8.07;;
50231;SDS011;36118;56.468;84.952;2022-11-12T23:50:06;12.07;;;9.18;;
50231;SDS011;36118;56.468;84.952;2022-11-12T23:55:27;11.90;;;7.68;;
